KSKA

Fairchild AFB Airport

Spokane, Washington, USA
METAR KSKA 231058Z 05009KT 10SM CLR 07/01 A2994 RMK AO2A SLP141 T00670008 $
Observed Flight Rules
Oct-23 @ 10:58 UTC (an hour ago) Visual Flight Rules
Wind Visibility Clouds
50° at 9 knots 10 miles
  • Clear skies
Temperatures Readings
Current 7°C / 45°F
Dewpoint 1°C / 34°F
Humidity 66%
Altimeter 29.94" Hg
Pressure 1014.1 hPa
Elevation 750
METAR KSKA 231058Z 05009KT 10SM CLR 07/01 A2994 RMK AO2A SLP141 T00670008 $
Observed Flight Rules
Oct-23 @ 10:58 UTC
(an hour ago)
VFR
Wind Visibility
50° at 9 knots 10 miles
Clouds
  • Clear skies
Temperature Dewpoint
7°C / 45°F 1°C / 34°F
Humidity Altimeter Pressure
66% 29.94" Hg 1014.1 hPa